sensor_id;sensor_type;location;lat;lon;timestamp;pressure;altitude;pressure_sealevel;temperature;humidity
60345;BME280;46188;52.324;8.032;2023-02-28T00:00:30;101996.97;;;-0.36;100.00
60345;BME280;46188;52.324;8.032;2023-02-28T00:02:56;101999.97;;;-0.42;100.00
60345;BME280;46188;52.324;8.032;2023-02-28T00:05:23;101994.31;;;-0.48;100.00
60345;BME280;46188;52.324;8.032;2023-02-28T00:07:50;101995.97;;;-0.48;100.00
60345;BME280;46188;52.324;8.032;2023-02-28T00:10:21;101989.34;;;-0.45;100.00
60345;BME280;46188;52.324;8.032;2023-02-28T00:12:52;101995.84;;;-0.50;100.00
60345;BME280;46188;52.324;8.032;2023-02-28T00:15:18;101992.81;;;-0.66;100.00
60345;BME280;46188;52.324;8.032;2023-02-28T00:17:44;101993.63;;;-0.67;100.00
60345;BME280;46188;52.324;8.032;2023-02-28T00:20:12;101991.88;;;-0.57;100.00
60345;BME280;46188;52.324;8.032;2023-02-28T00:22:44;101984.78;;;-0.59;100.00
60345;BME280;46188;52.324;8.032;2023-02-28T00:25:12;101982.44;;;-0.56;100.00
60345;BME280;46188;52.324;8.032;2023-02-28T00:27:39;101985.50;;;-0.50;100.00
60345;BME280;46188;52.324;8.032;2023-02-28T00:30:06;101986.94;;;-0.53;100.00
60345;BME280;46188;52.324;8.032;2023-02-28T00:32:32;101990.72;;;-0.60;100.00
60345;BME280;46188;52.324;8.032;2023-02-28T00:34:59;101990.34;;;-0.65;100.00
60345;BME280;46188;52.324;8.032;2023-02-28T00:37:25;101995.06;;;-0.71;100.00
60345;BME280;46188;52.324;8.032;2023-02-28T00:39:50;101993.47;;;-0.69;100.00
60345;BME280;46188;52.324;8.032;2023-02-28T00:42:15;101988.56;;;-0.66;100.00
60345;BME280;46188;52.324;8.032;2023-02-28T00:44:41;101989.88;;;-0.71;100.00
60345;BME280;46188;52.324;8.032;2023-02-28T00:47:06;101982.91;;;-0.82;100.00
60345;BME280;46188;52.324;8.032;2023-02-28T00:49:32;101974.94;;;-0.96;100.00
60345;BME280;46188;52.324;8.032;2023-02-28T00:51:57;101978.97;;;-1.09;100.00
60345;BME280;46188;52.324;8.032;2023-02-28T00:54:23;101986.38;;;-1.14;100.00
60345;BME280;46188;52.324;8.032;2023-02-28T00:56:49;101986.13;;;-1.17;100.00
60345;BME280;46188;52.324;8.032;2023-02-28T00:59:16;101982.00;;;-1.25;100.00
60345;BME280;46188;52.324;8.032;2023-02-28T01:01:44;101981.06;;;-1.26;100.00
60345;BME280;46188;52.324;8.032;2023-02-28T01:04:10;101981.28;;;-1.13;100.00
60345;BME280;46188;52.324;8.032;2023-02-28T01:06:36;101988.13;;;-1.03;100.00
60345;BME280;46188;52.324;8.032;2023-02-28T01:09:03;101979.59;;;-1.02;100.00
60345;BME280;46188;52.324;8.032;2023-02-28T01:11:28;101986.47;;;-1.02;100.00
60345;BME280;46188;52.324;8.032;2023-02-28T01:13:54;101981.81;;;-1.06;100.00
60345;BME280;46188;52.324;8.032;2023-02-28T01:16:19;101982.09;;;-1.14;100.00
60345;BME280;46188;52.324;8.032;2023-02-28T01:18:45;101989.31;;;-1.09;100.00
60345;BME280;46188;52.324;8.032;2023-02-28T01:21:13;101990.25;;;-1.09;100.00
60345;BME280;46188;52.324;8.032;2023-02-28T01:23:40;101985.84;;;-1.10;100.00
60345;BME280;46188;52.324;8.032;2023-02-28T01:26:07;101993.47;;;-1.12;100.00
60345;BME280;46188;52.324;8.032;2023-02-28T01:28:33;101995.03;;;-1.14;100.00
60345;BME280;46188;52.324;8.032;2023-02-28T01:30:59;101994.22;;;-1.13;100.00
60345;BME280;46188;52.324;8.032;2023-02-28T01:33:25;101993.72;;;-1.08;100.00
60345;BME280;46188;52.324;8.032;2023-02-28T01:35:57;101984.56;;;-1.15;100.00
60345;BME280;46188;52.324;8.032;2023-02-28T01:38:23;101986.25;;;-1.16;100.00
60345;BME280;46188;52.324;8.032;2023-02-28T01:40:49;101987.78;;;-1.07;100.00
60345;BME280;46188;52.324;8.032;2023-02-28T01:43:59;101979.47;;;-1.03;100.00
60345;BME280;46188;52.324;8.032;2023-02-28T01:46:16;101982.31;;;-1.00;100.00
60345;BME280;46188;52.324;8.032;2023-02-28T01:48:56;101979.72;;;-1.00;100.00
60345;BME280;46188;52.324;8.032;2023-02-28T01:51:54;101980.63;;;-1.00;100.00
60345;BME280;46188;52.324;8.032;2023-02-28T01:54:29;101992.00;;;-0.98;100.00
60345;BME280;46188;52.324;8.032;2023-02-28T01:57:03;101984.78;;;-1.02;100.00
60345;BME280;46188;52.324;8.032;2023-02-28T01:59:33;101982.75;;;-1.06;100.00
60345;BME280;46188;52.324;8.032;2023-02-28T02:02:01;101979.63;;;-1.12;100.00
60345;BME280;46188;52.324;8.032;2023-02-28T02:04:32;101976.53;;;-1.18;100.00
60345;BME280;46188;52.324;8.032;2023-02-28T02:07:00;101977.22;;;-1.21;100.00
60345;BME280;46188;52.324;8.032;2023-02-28T02:09:25;101977.72;;;-1.25;100.00
60345;BME280;46188;52.324;8.032;2023-02-28T02:11:51;101969.31;;;-1.22;100.00
60345;BME280;46188;52.324;8.032;2023-02-28T02:14:43;101972.66;;;-1.23;100.00
60345;BME280;46188;52.324;8.032;2023-02-28T02:17:38;101959.34;;;-1.28;100.00
60345;BME280;46188;52.324;8.032;2023-02-28T02:23:07;101962.47;;;-1.53;100.00
60345;BME280;46188;52.324;8.032;2023-02-28T02:38:40;101975.41;;;-1.53;100.00
60345;BME280;46188;52.324;8.032;2023-02-28T02:43:44;101976.97;;;-1.65;100.00
60345;BME280;46188;52.324;8.032;2023-02-28T02:46:19;101968.06;;;-1.69;100.00
60345;BME280;46188;52.324;8.032;2023-02-28T02:48:46;101970.66;;;-1.69;100.00
60345;BME280;46188;52.324;8.032;2023-02-28T02:51:18;101974.91;;;-1.90;100.00
60345;BME280;46188;52.324;8.032;2023-02-28T02:54:10;101976.94;;;-1.86;100.00
60345;BME280;46188;52.324;8.032;2023-02-28T02:56:39;101980.56;;;-1.94;100.00
60345;BME280;46188;52.324;8.032;2023-02-28T02:59:10;101975.41;;;-1.94;100.00
60345;BME280;46188;52.324;8.032;2023-02-28T03:01:37;101971.03;;;-1.95;100.00
60345;BME280;46188;52.324;8.032;2023-02-28T03:04:08;101974.63;;;-1.93;100.00
60345;BME280;46188;52.324;8.032;2023-02-28T03:06:34;101975.44;;;-1.83;100.00
60345;BME280;46188;52.324;8.032;2023-02-28T03:09:00;101976.94;;;-1.86;100.00
60345;BME280;46188;52.324;8.032;2023-02-28T03:11:26;101984.59;;;-1.77;100.00
60345;BME280;46188;52.324;8.032;2023-02-28T03:14:08;101984.97;;;-1.72;100.00
60345;BME280;46188;52.324;8.032;2023-02-28T03:21:40;101984.75;;;-1.75;100.00
60345;BME280;46188;52.324;8.032;2023-02-28T03:24:18;101985.91;;;-1.82;100.00
60345;BME280;46188;52.324;8.032;2023-02-28T03:26:50;101982.91;;;-1.87;100.00
60345;BME280;46188;52.324;8.032;2023-02-28T03:29:47;101982.78;;;-1.78;100.00
60345;BME280;46188;52.324;8.032;2023-02-28T03:32:27;101988.72;;;-1.79;100.00
60345;BME280;46188;52.324;8.032;2023-02-28T03:35:11;101983.41;;;-1.80;100.00
60345;BME280;46188;52.324;8.032;2023-02-28T03:37:39;101986.00;;;-1.91;100.00
60345;BME280;46188;52.324;8.032;2023-02-28T03:40:15;101981.50;;;-1.93;100.00
60345;BME280;46188;52.324;8.032;2023-02-28T03:42:45;101976.94;;;-1.96;100.00
60345;BME280;46188;52.324;8.032;2023-02-28T03:45:17;101979.25;;;-1.99;100.00
60345;BME280;46188;52.324;8.032;2023-02-28T03:47:52;101975.91;;;-1.98;100.00
60345;BME280;46188;52.324;8.032;2023-02-28T03:50:22;101975.53;;;-2.02;100.00
60345;BME280;46188;52.324;8.032;2023-02-28T03:53:13;101983.13;;;-2.14;100.00
60345;BME280;46188;52.324;8.032;2023-02-28T03:55:43;101978.94;;;-2.33;100.00
60345;BME280;46188;52.324;8.032;2023-02-28T04:01:20;101977.13;;;-2.34;100.00
60345;BME280;46188;52.324;8.032;2023-02-28T04:03:46;101975.34;;;-2.25;100.00
60345;BME280;46188;52.324;8.032;2023-02-28T04:06:20;101971.22;;;-2.23;100.00
60345;BME280;46188;52.324;8.032;2023-02-28T04:08:46;101981.66;;;-2.31;100.00
60345;BME280;46188;52.324;8.032;2023-02-28T04:11:34;101982.09;;;-2.27;100.00
60345;BME280;46188;52.324;8.032;2023-02-28T04:14:01;101979.59;;;-2.25;100.00
60345;BME280;46188;52.324;8.032;2023-02-28T04:16:27;101981.56;;;-2.23;100.00
60345;BME280;46188;52.324;8.032;2023-02-28T04:18:53;101984.94;;;-2.13;100.00
60345;BME280;46188;52.324;8.032;2023-02-28T04:21:18;101980.81;;;-2.11;100.00
60345;BME280;46188;52.324;8.032;2023-02-28T04:23:46;101984.16;;;-2.12;100.00
60345;BME280;46188;52.324;8.032;2023-02-28T04:26:11;101980.41;;;-2.16;100.00
60345;BME280;46188;52.324;8.032;2023-02-28T04:28:38;101981.44;;;-2.14;100.00
60345;BME280;46188;52.324;8.032;2023-02-28T04:31:04;101982.38;;;-2.13;100.00
60345;BME280;46188;52.324;8.032;2023-02-28T04:33:32;101982.09;;;-2.16;100.00
60345;BME280;46188;52.324;8.032;2023-02-28T04:36:05;101986.72;;;-2.23;100.00
60345;BME280;46188;52.324;8.032;2023-02-28T04:38:33;101987.09;;;-2.28;100.00
60345;BME280;46188;52.324;8.032;2023-02-28T04:41:00;101989.75;;;-2.47;100.00
60345;BME280;46188;52.324;8.032;2023-02-28T04:43:27;101989.25;;;-2.43;100.00
60345;BME280;46188;52.324;8.032;2023-02-28T04:45:53;102005.50;;;-2.44;100.00
60345;BME280;46188;52.324;8.032;2023-02-28T04:48:25;101999.53;;;-2.53;100.00
60345;BME280;46188;52.324;8.032;2023-02-28T04:50:51;101998.00;;;-2.51;100.00
60345;BME280;46188;52.324;8.032;2023-02-28T04:53:17;101997.47;;;-2.57;100.00
60345;BME280;46188;52.324;8.032;2023-02-28T04:55:43;101994.75;;;-2.59;100.00
60345;BME280;46188;52.324;8.032;2023-02-28T04:58:08;101994.06;;;-2.67;100.00
60345;BME280;46188;52.324;8.032;2023-02-28T05:00:34;102002.00;;;-2.84;100.00
60345;BME280;46188;52.324;8.032;2023-02-28T05:02:59;102010.50;;;-2.85;100.00
60345;BME280;46188;52.324;8.032;2023-02-28T05:05:24;102000.44;;;-2.82;100.00
60345;BME280;46188;52.324;8.032;2023-02-28T05:07:50;102004.75;;;-2.91;100.00
60345;BME280;46188;52.324;8.032;2023-02-28T05:10:15;102000.41;;;-2.92;100.00
60345;BME280;46188;52.324;8.032;2023-02-28T05:12:41;102004.91;;;-2.90;100.00
60345;BME280;46188;52.324;8.032;2023-02-28T05:15:10;102007.66;;;-2.78;100.00
60345;BME280;46188;52.324;8.032;2023-02-28T05:17:37;102003.34;;;-2.69;100.00
60345;BME280;46188;52.324;8.032;2023-02-28T05:20:03;102007.75;;;-2.68;100.00
60345;BME280;46188;52.324;8.032;2023-02-28T05:22:30;102009.53;;;-2.67;100.00
60345;BME280;46188;52.324;8.032;2023-02-28T05:24:55;102011.84;;;-2.70;100.00
60345;BME280;46188;52.324;8.032;2023-02-28T05:27:21;102014.38;;;-2.80;100.00
60345;BME280;46188;52.324;8.032;2023-02-28T05:29:46;102011.75;;;-2.90;100.00
60345;BME280;46188;52.324;8.032;2023-02-28T05:32:12;102015.22;;;-2.90;100.00
60345;BME280;46188;52.324;8.032;2023-02-28T05:34:39;102016.22;;;-2.79;100.00
60345;BME280;46188;52.324;8.032;2023-02-28T05:37:05;102024.00;;;-2.69;100.00
60345;BME280;46188;52.324;8.032;2023-02-28T05:39:31;102021.84;;;-2.64;100.00
60345;BME280;46188;52.324;8.032;2023-02-28T05:41:56;102027.59;;;-2.67;100.00
60345;BME280;46188;52.324;8.032;2023-02-28T05:44:22;102018.34;;;-2.65;100.00
60345;BME280;46188;52.324;8.032;2023-02-28T05:46:47;102032.00;;;-2.66;100.00
60345;BME280;46188;52.324;8.032;2023-02-28T05:49:13;102026.00;;;-2.56;100.00
60345;BME280;46188;52.324;8.032;2023-02-28T05:51:38;102022.75;;;-2.53;100.00
60345;BME280;46188;52.324;8.032;2023-02-28T05:54:05;102023.56;;;-2.54;100.00
60345;BME280;46188;52.324;8.032;2023-02-28T05:56:31;102026.41;;;-2.51;100.00
60345;BME280;46188;52.324;8.032;2023-02-28T05:58:57;102026.16;;;-2.44;100.00
60345;BME280;46188;52.324;8.032;2023-02-28T06:01:31;102023.06;;;-2.40;100.00
60345;BME280;46188;52.324;8.032;2023-02-28T06:04:01;102025.56;;;-2.42;100.00
60345;BME280;46188;52.324;8.032;2023-02-28T06:06:28;102027.72;;;-2.46;100.00
60345;BME280;46188;52.324;8.032;2023-02-28T06:08:55;102024.88;;;-2.49;100.00
60345;BME280;46188;52.324;8.032;2023-02-28T06:11:20;102027.41;;;-2.60;100.00
60345;BME280;46188;52.324;8.032;2023-02-28T06:13:46;102017.56;;;-2.64;100.00
60345;BME280;46188;52.324;8.032;2023-02-28T06:16:11;102019.88;;;-2.67;100.00
60345;BME280;46188;52.324;8.032;2023-02-28T06:18:37;102025.81;;;-2.68;100.00
60345;BME280;46188;52.324;8.032;2023-02-28T06:21:03;102031.88;;;-2.67;100.00
60345;BME280;46188;52.324;8.032;2023-02-28T06:23:28;102026.84;;;-2.66;100.00
60345;BME280;46188;52.324;8.032;2023-02-28T06:25:54;102023.72;;;-2.72;100.00
60345;BME280;46188;52.324;8.032;2023-02-28T06:28:23;102024.22;;;-2.76;100.00
60345;BME280;46188;52.324;8.032;2023-02-28T06:30:49;102030.00;;;-2.79;100.00
60345;BME280;46188;52.324;8.032;2023-02-28T06:33:14;102025.50;;;-2.81;100.00
60345;BME280;46188;52.324;8.032;2023-02-28T06:35:40;102027.78;;;-2.84;100.00
60345;BME280;46188;52.324;8.032;2023-02-28T06:38:08;102033.81;;;-2.94;100.00
60345;BME280;46188;52.324;8.032;2023-02-28T06:40:33;102033.16;;;-2.91;100.00
60345;BME280;46188;52.324;8.032;2023-02-28T06:43:00;102037.84;;;-2.87;100.00
60345;BME280;46188;52.324;8.032;2023-02-28T06:45:26;102041.59;;;-2.84;100.00
60345;BME280;46188;52.324;8.032;2023-02-28T06:47:51;102038.66;;;-2.78;100.00
60345;BME280;46188;52.324;8.032;2023-02-28T06:50:17;102048.22;;;-2.77;100.00
60345;BME280;46188;52.324;8.032;2023-02-28T06:52:44;102051.34;;;-2.71;100.00
60345;BME280;46188;52.324;8.032;2023-02-28T06:55:10;102048.53;;;-2.64;100.00
60345;BME280;46188;52.324;8.032;2023-02-28T06:57:36;102053.38;;;-2.58;100.00
60345;BME280;46188;52.324;8.032;2023-02-28T07:00:06;102054.25;;;-2.57;100.00
60345;BME280;46188;52.324;8.032;2023-02-28T07:02:33;102051.91;;;-2.65;100.00
60345;BME280;46188;52.324;8.032;2023-02-28T07:04:58;102056.16;;;-2.65;100.00
60345;BME280;46188;52.324;8.032;2023-02-28T07:07:24;102049.47;;;-2.63;100.00
60345;BME280;46188;52.324;8.032;2023-02-28T07:09:49;102051.59;;;-2.49;100.00
60345;BME280;46188;52.324;8.032;2023-02-28T07:12:16;102049.69;;;-2.41;100.00
60345;BME280;46188;52.324;8.032;2023-02-28T07:14:41;102057.72;;;-2.38;100.00
60345;BME280;46188;52.324;8.032;2023-02-28T07:17:10;102054.63;;;-2.34;100.00
60345;BME280;46188;52.324;8.032;2023-02-28T07:19:38;102054.28;;;-2.28;100.00
60345;BME280;46188;52.324;8.032;2023-02-28T07:22:04;102060.34;;;-2.17;100.00
60345;BME280;46188;52.324;8.032;2023-02-28T07:24:29;102062.34;;;-2.05;100.00
60345;BME280;46188;52.324;8.032;2023-02-28T07:26:55;102061.19;;;-1.98;100.00
60345;BME280;46188;52.324;8.032;2023-02-28T07:29:21;102059.66;;;-1.96;100.00
60345;BME280;46188;52.324;8.032;2023-02-28T07:31:46;102055.38;;;-1.95;100.00
60345;BME280;46188;52.324;8.032;2023-02-28T07:34:13;102061.19;;;-1.98;100.00
60345;BME280;46188;52.324;8.032;2023-02-28T07:36:38;102059.66;;;-1.96;100.00
60345;BME280;46188;52.324;8.032;2023-02-28T07:39:04;102061.09;;;-1.89;100.00
60345;BME280;46188;52.324;8.032;2023-02-28T07:41:29;102060.75;;;-1.73;100.00
60345;BME280;46188;52.324;8.032;2023-02-28T07:43:58;102065.91;;;-1.63;100.00
60345;BME280;46188;52.324;8.032;2023-02-28T07:46:25;102059.84;;;-1.53;100.00
60345;BME280;46188;52.324;8.032;2023-02-28T07:48:51;102068.28;;;-1.45;100.00
60345;BME280;46188;52.324;8.032;2023-02-28T07:51:16;102059.84;;;-1.33;100.00
60345;BME280;46188;52.324;8.032;2023-02-28T07:53:42;102061.78;;;-1.20;100.00
60345;BME280;46188;52.324;8.032;2023-02-28T07:56:07;102059.84;;;-1.02;100.00
60345;BME280;46188;52.324;8.032;2023-02-28T07:58:33;102069.78;;;-0.86;100.00
60345;BME280;46188;52.324;8.032;2023-02-28T08:01:08;102067.69;;;-0.69;100.00
60345;BME280;46188;52.324;8.032;2023-02-28T08:03:35;102067.38;;;-0.52;100.00
60345;BME280;46188;52.324;8.032;2023-02-28T08:06:02;102069.41;;;-0.38;100.00
60345;BME280;46188;52.324;8.032;2023-02-28T08:08:28;102069.59;;;-0.24;100.00
60345;BME280;46188;52.324;8.032;2023-02-28T08:11:00;102070.03;;;-0.08;100.00
60345;BME280;46188;52.324;8.032;2023-02-28T08:13:26;102075.84;;;0.00;100.00
60345;BME280;46188;52.324;8.032;2023-02-28T08:15:53;102073.78;;;0.18;100.00
60345;BME280;46188;52.324;8.032;2023-02-28T08:18:19;102070.75;;;0.46;100.00
60345;BME280;46188;52.324;8.032;2023-02-28T08:20:44;102065.63;;;0.69;100.00
60345;BME280;46188;52.324;8.032;2023-02-28T08:23:10;102067.06;;;1.00;100.00
60345;BME280;46188;52.324;8.032;2023-02-28T08:25:35;102068.91;;;1.36;100.00
60345;BME280;46188;52.324;8.032;2023-02-28T08:28:01;102067.06;;;1.82;100.00
60345;BME280;46188;52.324;8.032;2023-02-28T08:30:26;102062.47;;;2.15;100.00
60345;BME280;46188;52.324;8.032;2023-02-28T08:32:51;102059.00;;;2.40;98.31
60345;BME280;46188;52.324;8.032;2023-02-28T08:35:17;102058.47;;;2.71;94.10
60345;BME280;46188;52.324;8.032;2023-02-28T08:37:42;102073.59;;;3.02;90.94
60345;BME280;46188;52.324;8.032;2023-02-28T08:40:08;102067.22;;;3.63;87.35
60345;BME280;46188;52.324;8.032;2023-02-28T08:42:34;102072.28;;;4.30;82.67
60345;BME280;46188;52.324;8.032;2023-02-28T08:45:00;102062.78;;;4.89;78.43
60345;BME280;46188;52.324;8.032;2023-02-28T08:47:25;102051.31;;;5.46;72.96
60345;BME280;46188;52.324;8.032;2023-02-28T08:49:51;102064.00;;;6.01;71.69
60345;BME280;46188;52.324;8.032;2023-02-28T08:52:16;102061.69;;;6.39;67.55
60345;BME280;46188;52.324;8.032;2023-02-28T08:54:42;102048.69;;;6.75;66.40
60345;BME280;46188;52.324;8.032;2023-02-28T08:57:07;102047.66;;;7.06;64.35
60345;BME280;46188;52.324;8.032;2023-02-28T08:59:33;102068.78;;;7.43;62.56
60345;BME280;46188;52.324;8.032;2023-02-28T09:01:58;102055.69;;;7.63;61.35
60345;BME280;46188;52.324;8.032;2023-02-28T09:04:23;102064.53;;;7.83;59.61
60345;BME280;46188;52.324;8.032;2023-02-28T09:06:49;102066.00;;;8.13;59.10
60345;BME280;46188;52.324;8.032;2023-02-28T09:09:15;102064.34;;;8.35;57.87
60345;BME280;46188;52.324;8.032;2023-02-28T09:11:41;102060.16;;;8.58;56.97
60345;BME280;46188;52.324;8.032;2023-02-28T09:14:06;102058.56;;;8.81;55.04
60345;BME280;46188;52.324;8.032;2023-02-28T09:16:33;102055.09;;;9.03;54.44
60345;BME280;46188;52.324;8.032;2023-02-28T09:18:59;102053.34;;;9.23;53.69
60345;BME280;46188;52.324;8.032;2023-02-28T09:21:24;102058.03;;;9.31;52.80
60345;BME280;46188;52.324;8.032;2023-02-28T09:23:50;102062.81;;;9.41;52.02
60345;BME280;46188;52.324;8.032;2023-02-28T09:26:26;102045.19;;;9.61;50.96
60345;BME280;46188;52.324;8.032;2023-02-28T09:28:53;102050.59;;;9.64;50.01
60345;BME280;46188;52.324;8.032;2023-02-28T09:31:22;102050.66;;;9.66;48.89
60345;BME280;46188;52.324;8.032;2023-02-28T09:33:53;102055.00;;;9.42;48.01
60345;BME280;46188;52.324;8.032;2023-02-28T09:36:20;102045.88;;;9.55;47.65
60345;BME280;46188;52.324;8.032;2023-02-28T09:38:45;102048.50;;;9.78;45.22
60345;BME280;46188;52.324;8.032;2023-02-28T09:41:38;102045.25;;;10.30;45.20
60345;BME280;46188;52.324;8.032;2023-02-28T09:44:07;102047.47;;;10.42;44.73
60345;BME280;46188;52.324;8.032;2023-02-28T09:46:42;102045.84;;;10.46;44.21
60345;BME280;46188;52.324;8.032;2023-02-28T09:49:24;102042.38;;;10.47;43.64
60345;BME280;46188;52.324;8.032;2023-02-28T09:52:02;102045.25;;;10.53;43.52
60345;BME280;46188;52.324;8.032;2023-02-28T09:54:30;102045.00;;;10.71;43.68
60345;BME280;46188;52.324;8.032;2023-02-28T09:57:08;102050.88;;;10.64;42.83
60345;BME280;46188;52.324;8.032;2023-02-28T09:59:44;102049.53;;;10.75;42.59
60345;BME280;46188;52.324;8.032;2023-02-28T10:04:59;102049.13;;;10.88;42.22
60345;BME280;46188;52.324;8.032;2023-02-28T10:10:01;102053.47;;;11.12;41.62
60345;BME280;46188;52.324;8.032;2023-02-28T10:12:29;102057.06;;;11.14;41.42
60345;BME280;46188;52.324;8.032;2023-02-28T10:14:58;102060.31;;;11.07;41.31
60345;BME280;46188;52.324;8.032;2023-02-28T10:17:28;102059.44;;;10.81;40.21
60345;BME280;46188;52.324;8.032;2023-02-28T10:20:05;102061.78;;;10.73;40.84
60345;BME280;46188;52.324;8.032;2023-02-28T10:22:46;102059.91;;;10.70;40.00
60345;BME280;46188;52.324;8.032;2023-02-28T10:25:21;102057.38;;;10.48;40.11
60345;BME280;46188;52.324;8.032;2023-02-28T10:27:47;102059.25;;;10.76;40.52
60345;BME280;46188;52.324;8.032;2023-02-28T10:30:13;102056.16;;;10.64;39.84
60345;BME280;46188;52.324;8.032;2023-02-28T10:32:47;102058.06;;;10.44;39.50
60345;BME280;46188;52.324;8.032;2023-02-28T10:35:24;102071.75;;;10.33;39.68
60345;BME280;46188;52.324;8.032;2023-02-28T10:38:00;102064.38;;;10.25;39.38
60345;BME280;46188;52.324;8.032;2023-02-28T10:40:34;102058.75;;;10.38;40.04
60345;BME280;46188;52.324;8.032;2023-02-28T10:43:06;102063.78;;;10.32;39.21
60345;BME280;46188;52.324;8.032;2023-02-28T10:46:16;102050.06;;;10.18;39.31
60345;BME280;46188;52.324;8.032;2023-02-28T10:49:06;102049.53;;;9.59;39.45
60345;BME280;46188;52.324;8.032;2023-02-28T10:51:39;102046.13;;;9.40;40.71
60345;BME280;46188;52.324;8.032;2023-02-28T10:54:05;102054.09;;;9.21;40.49
60345;BME280;46188;52.324;8.032;2023-02-28T10:56:31;102054.63;;;9.12;40.64
60345;BME280;46188;52.324;8.032;2023-02-28T10:59:02;102053.47;;;9.05;40.65
60345;BME280;46188;52.324;8.032;2023-02-28T11:01:44;102044.66;;;9.05;40.46
60345;BME280;46188;52.324;8.032;2023-02-28T11:07:03;102047.81;;;9.17;41.04
60345;BME280;46188;52.324;8.032;2023-02-28T11:11:58;102043.72;;;9.45;41.57
60345;BME280;46188;52.324;8.032;2023-02-28T11:14:32;102037.03;;;9.53;41.18
60345;BME280;46188;52.324;8.032;2023-02-28T11:17:11;102047.41;;;9.50;41.43
60345;BME280;46188;52.324;8.032;2023-02-28T11:19:44;102043.09;;;9.52;41.12
60345;BME280;46188;52.324;8.032;2023-02-28T11:22:18;102031.38;;;9.44;40.75
60345;BME280;46188;52.324;8.032;2023-02-28T11:24:48;102041.50;;;9.35;39.85
60345;BME280;46188;52.324;8.032;2023-02-28T11:29:57;102038.66;;;9.51;40.22
60345;BME280;46188;52.324;8.032;2023-02-28T11:32:25;102037.75;;;9.72;40.54
60345;BME280;46188;52.324;8.032;2023-02-28T11:37:32;102042.63;;;9.63;40.13
60345;BME280;46188;52.324;8.032;2023-02-28T11:39:58;102039.19;;;9.64;40.20
60345;BME280;46188;52.324;8.032;2023-02-28T11:42:45;102035.41;;;9.57;39.39
60345;BME280;46188;52.324;8.032;2023-02-28T11:45:22;102030.97;;;9.56;39.56
60345;BME280;46188;52.324;8.032;2023-02-28T11:48:01;102019.94;;;9.44;39.07
60345;BME280;46188;52.324;8.032;2023-02-28T11:56:36;102023.03;;;10.00;39.89
60345;BME280;46188;52.324;8.032;2023-02-28T12:05:34;102008.09;;;10.24;39.50
60345;BME280;46188;52.324;8.032;2023-02-28T12:11:00;102000.09;;;9.97;39.32
60345;BME280;46188;52.324;8.032;2023-02-28T12:19:07;101992.19;;;9.97;39.14
60345;BME280;46188;52.324;8.032;2023-02-28T12:21:45;101987.66;;;10.17;38.89
60345;BME280;46188;52.324;8.032;2023-02-28T12:27:00;101985.00;;;10.40;38.98
60345;BME280;46188;52.324;8.032;2023-02-28T12:29:33;101974.47;;;10.65;39.74
60345;BME280;46188;52.324;8.032;2023-02-28T12:34:41;101965.00;;;10.22;39.61
60345;BME280;46188;52.324;8.032;2023-02-28T12:37:20;101961.00;;;10.09;39.24
60345;BME280;46188;52.324;8.032;2023-02-28T12:39:51;101963.50;;;10.05;39.48
60345;BME280;46188;52.324;8.032;2023-02-28T12:42:28;101960.31;;;9.91;39.66
60345;BME280;46188;52.324;8.032;2023-02-28T12:44:59;101949.41;;;9.80;39.88
60345;BME280;46188;52.324;8.032;2023-02-28T12:47:26;101960.44;;;9.70;39.61
60345;BME280;46188;52.324;8.032;2023-02-28T12:50:09;101944.25;;;9.15;39.56
60345;BME280;46188;52.324;8.032;2023-02-28T12:53:06;101950.94;;;9.30;40.22
60345;BME280;46188;52.324;8.032;2023-02-28T12:55:49;101941.72;;;9.18;40.39
60345;BME280;46188;52.324;8.032;2023-02-28T12:58:30;101945.91;;;9.13;41.44
60345;BME280;46188;52.324;8.032;2023-02-28T13:01:18;101937.84;;;9.09;41.53
60345;BME280;46188;52.324;8.032;2023-02-28T13:09:24;101934.56;;;8.93;41.91
60345;BME280;46188;52.324;8.032;2023-02-28T13:11:51;101929.09;;;8.89;42.07
60345;BME280;46188;52.324;8.032;2023-02-28T13:14:44;101924.56;;;9.05;41.91
60345;BME280;46188;52.324;8.032;2023-02-28T13:19:58;101930.66;;;9.04;41.92
60345;BME280;46188;52.324;8.032;2023-02-28T13:27:50;101917.44;;;8.82;42.16
60345;BME280;46188;52.324;8.032;2023-02-28T13:38:45;101927.91;;;8.80;42.44
60345;BME280;46188;52.324;8.032;2023-02-28T13:44:19;101931.50;;;8.61;43.00
60345;BME280;46188;52.324;8.032;2023-02-28T13:52:36;101928.59;;;8.15;43.43
60345;BME280;46188;52.324;8.032;2023-02-28T14:03:23;101916.94;;;8.29;43.26
60345;BME280;46188;52.324;8.032;2023-02-28T14:06:25;101917.91;;;8.31;43.72
60345;BME280;46188;52.324;8.032;2023-02-28T14:09:03;101921.94;;;8.23;43.39
60345;BME280;46188;52.324;8.032;2023-02-28T14:11:36;101916.94;;;8.48;43.42
60345;BME280;46188;52.324;8.032;2023-02-28T14:14:03;101906.94;;;8.61;42.82
60345;BME280;46188;52.324;8.032;2023-02-28T14:16:41;101913.47;;;8.49;42.60
60345;BME280;46188;52.324;8.032;2023-02-28T14:38:45;101891.22;;;7.81;44.75
60345;BME280;46188;52.324;8.032;2023-02-28T14:41:20;101888.63;;;8.02;44.36
60345;BME280;46188;52.324;8.032;2023-02-28T14:43:57;101888.25;;;8.14;44.58
60345;BME280;46188;52.324;8.032;2023-02-28T14:46:30;101900.66;;;8.17;44.50
60345;BME280;46188;52.324;8.032;2023-02-28T14:49:01;101896.13;;;7.93;44.40
60345;BME280;46188;52.324;8.032;2023-02-28T14:51:27;101893.66;;;7.98;44.68
60345;BME280;46188;52.324;8.032;2023-02-28T14:53:57;101888.91;;;8.08;44.64
60345;BME280;46188;52.324;8.032;2023-02-28T14:56:36;101886.56;;;7.95;44.72
60345;BME280;46188;52.324;8.032;2023-02-28T14:59:03;101884.00;;;7.77;44.70
60345;BME280;46188;52.324;8.032;2023-02-28T15:01:29;101885.91;;;7.80;45.24
60345;BME280;46188;52.324;8.032;2023-02-28T15:03:58;101883.72;;;7.90;45.24
60345;BME280;46188;52.324;8.032;2023-02-28T15:06:27;101886.28;;;7.69;44.99
60345;BME280;46188;52.324;8.032;2023-02-28T15:09:24;101892.50;;;7.52;45.22